Terminal Aerodrome Forecast
Issued by NWS

Home | Current Version | Previous Version | Text Only | Print | Product List | Glossary Off
Versions: 1 2 3 4 5 6 7 8 9 10 11 12 13 14 15 16 17 18 19 20 21 22 23 24 25 26 27 28 29 30

000
FTUS43 KLOT 180520
TAFMDW
TAF
KMDW 180520Z 1806/1912 27006KT P6SM SKC
      TEMPO 1806/1807 BKN015
     FM181000 00000KT P6SM BCFG SKC
     FM181400 17010KT P6SM SCT250
     FM181800 18015G25KT P6SM SCT250
     FM190000 18015G25KT P6SM BKN250 WS020/20060KT
     FM190600 19012KT 5SM -SHRA OVC035=

USA.gov is the U.S. government's official web portal to all federal, state and local government web resources and services.